Time;durP1;ratioP1;P1;durP2;ratioP2;P2;SDS_P1;SDS_P2;PMS_P1;PMS_P2;Temp;Humidity;BMP_temperature;BMP_pressure;BME280_temperature;BME280_humidity;BME280_pressure;Samples;Min_cycle;Max_cycle;Signal;HPM_P1;HPM_P2
2023/01/28 00:01:07;;;;;;;0.40;0.40;;;13.60;59.60;;;;;;5072914;28;20044;-72
2023/01/28 00:03:34;;;;;;;0.68;0.50;;;13.60;59.70;;;;;;5072775;28;20383;-72
2023/01/28 00:06:10;;;;;;;0.85;0.40;;;13.60;59.70;;;;;;5073032;28;20413;-72
2023/01/28 00:08:36;;;;;;;0.73;0.40;;;13.70;59.70;;;;;;5073006;28;20032;-72
2023/01/28 00:11:04;;;;;;;0.50;0.50;;;13.70;59.70;;;;;;5072789;28;20016;-72
2023/01/28 00:13:31;;;;;;;0.73;0.55;;;13.60;59.70;;;;;;5073116;28;20470;-72
2023/01/28 00:15:59;;;;;;;0.40;0.40;;;13.60;59.60;;;;;;5072986;28;20383;-72
2023/01/28 00:18:28;;;;;;;0.77;0.40;;;13.70;59.70;;;;;;5072428;28;20061;-72
2023/01/28 00:21:04;;;;;;;0.45;0.30;;;13.60;59.70;;;;;;5072677;28;20125;-72
2023/01/28 00:23:35;;;;;;;0.45;0.30;;;13.70;59.70;;;;;;5072582;28;20044;-72
2023/01/28 00:26:03;;;;;;;0.43;0.40;;;13.60;59.60;;;;;;5072867;28;20024;-75
2023/01/28 00:28:29;;;;;;;0.63;0.40;;;13.60;59.70;;;;;;5072644;28;20020;-72
2023/01/28 00:30:55;;;;;;;0.43;0.40;;;13.60;59.70;;;;;;5072467;28;20040;-72
2023/01/28 00:33:22;;;;;;;0.35;0.30;;;13.70;59.70;;;;;;5072568;28;20020;-72
2023/01/28 00:35:56;;;;;;;0.35;0.35;;;13.70;59.70;;;;;;5072420;28;20380;-72
2023/01/28 00:38:21;;;;;;;0.30;0.30;;;13.70;59.80;;;;;;5072524;28;20371;-72
2023/01/28 00:40:47;;;;;;;0.52;0.40;;;13.70;59.70;;;;;;5072643;28;20023;-72
2023/01/28 00:43:13;;;;;;;0.50;0.50;;;13.70;59.70;;;;;;5072341;28;20082;-72
2023/01/28 00:45:38;;;;;;;0.60;0.50;;;13.60;59.70;;;;;;5072353;28;20021;-75
2023/01/28 00:48:05;;;;;;;0.40;0.40;;;13.60;59.70;;;;;;5072163;28;20078;-75
2023/01/28 00:50:31;;;;;;;0.50;0.47;;;13.70;59.70;;;;;;5072199;28;20514;-76
2023/01/28 00:52:56;;;;;;;0.30;0.30;;;13.70;59.70;;;;;;5072044;28;20052;-75
2023/01/28 00:55:22;;;;;;;0.30;0.30;;;13.70;59.70;;;;;;5072111;28;20483;-75
2023/01/28 00:57:48;;;;;;;0.30;0.30;;;13.60;59.60;;;;;;5072099;28;20056;-75
2023/01/28 01:00:15;;;;;;;0.40;0.40;;;13.70;59.70;;;;;;5072018;28;20090;-75
2023/01/28 01:02:41;;;;;;;0.47;0.35;;;13.70;59.70;;;;;;5072225;28;20052;-72
2023/01/28 01:05:08;;;;;;;0.30;0.30;;;13.70;59.70;;;;;;5072383;28;20027;-72
2023/01/28 01:07:40;;;;;;;0.68;0.50;;;13.60;59.60;;;;;;5072296;28;20024;-72
2023/01/28 01:10:14;;;;;;;0.30;0.30;;;13.60;59.60;;;;;;5072222;28;20043;-72
2023/01/28 01:12:41;;;;;;;0.40;0.40;;;13.60;59.60;;;;;;5054482;28;20082;-72
2023/01/28 01:15:09;;;;;;;0.38;0.38;;;13.70;59.70;;;;;;5072140;28;20048;-72
2023/01/28 01:17:39;;;;;;;0.40;0.40;;;13.70;59.70;;;;;;5071876;28;20517;-72
2023/01/28 01:20:08;;;;;;;0.47;0.47;;;13.60;59.60;;;;;;5071873;28;20028;-72
2023/01/28 01:22:35;;;;;;;1.15;0.40;;;13.60;59.60;;;;;;5071846;28;20044;-75
2023/01/28 01:25:03;;;;;;;0.20;0.20;;;13.70;59.60;;;;;;5071779;28;20043;-75
2023/01/28 01:27:30;;;;;;;0.55;0.50;;;13.60;59.60;;;;;;5072189;28;20028;-75
2023/01/28 01:29:57;;;;;;;0.43;0.32;;;13.60;59.60;;;;;;5073403;28;20048;-75
2023/01/28 01:32:27;;;;;;;0.63;0.40;;;13.60;59.60;;;;;;5076007;28;20025;-75
2023/01/28 01:34:53;;;;;;;0.98;0.50;;;13.60;59.60;;;;;;5075895;28;20016;-75
2023/01/28 01:37:20;;;;;;;0.50;0.30;;;13.60;59.60;;;;;;5076092;28;20024;-75
2023/01/28 01:39:45;;;;;;;0.40;0.40;;;13.60;59.60;;;;;;5076165;28;20155;-75
2023/01/28 01:42:12;;;;;;;1.80;0.25;;;13.60;59.60;;;;;;5075902;28;20115;-72
2023/01/28 01:44:56;;;;;;;1.80;0.40;;;13.60;59.60;;;;;;5075696;28;20096;-72
2023/01/28 01:48:07;;;;;;;0.55;0.50;;;13.60;59.60;;;;;;5075914;28;20111;-72
2023/01/28 01:50:40;;;;;;;0.30;0.30;;;13.70;59.60;;;;;;4974410;28;20035;-72
2023/01/28 01:53:14;;;;;;;0.30;0.30;;;13.60;59.60;;;;;;4974482;28;20085;-72
2023/01/28 01:55:44;;;;;;;0.30;0.30;;;13.60;59.60;;;;;;5032031;28;20040;-72
2023/01/28 01:58:14;;;;;;;0.43;0.43;;;13.60;59.60;;;;;;5075666;28;20024;-72
2023/01/28 02:00:41;;;;;;;0.32;0.32;;;13.60;59.60;;;;;;5075303;28;20356;-75
2023/01/28 02:03:08;;;;;;;0.45;0.40;;;13.60;60.20;;;;;;5075249;28;20040;-75
2023/01/28 02:05:35;;;;;;;0.30;0.30;;;13.60;59.50;;;;;;5075565;28;20074;-75
2023/01/28 02:10:54;;;;;;;1.73;0.60;;;13.60;59.50;;;;;;5075517;28;20257;-75
2023/01/28 02:13:26;;;;;;;0.40;0.40;;;13.60;59.50;;;;;;5058779;28;20021;-75
2023/01/28 02:15:54;;;;;;;0.30;0.30;;;13.60;60.10;;;;;;5075180;28;20024;-75
2023/01/28 02:18:20;;;;;;;0.60;0.45;;;13.60;59.50;;;;;;5075325;28;20031;-75
2023/01/28 02:21:04;;;;;;;0.30;0.30;;;13.60;59.40;;;;;;5075003;28;20035;-75
2023/01/28 02:23:46;;;;;;;0.30;0.30;;;13.60;59.50;;;;;;5075198;28;20036;-75
2023/01/28 02:26:24;;;;;;;0.30;0.30;;;13.60;59.50;;;;;;5074876;28;20106;-75
2023/01/28 02:28:59;;;;;;;0.40;0.40;;;13.60;59.50;;;;;;5074899;28;20082;-75
2023/01/28 02:31:36;;;;;;;0.28;0.28;;;13.60;59.50;;;;;;5074969;28;20031;-75
2023/01/28 02:34:37;;;;;;;0.50;0.47;;;13.60;59.40;;;;;;5074829;28;20032;-75
2023/01/28 02:37:06;;;;;;;0.30;0.30;;;13.60;59.40;;;;;;5036630;28;20040;-75
2023/01/28 02:39:36;;;;;;;0.43;0.38;;;13.60;59.40;;;;;;5074974;28;20035;-75
2023/01/28 02:42:10;;;;;;;0.40;0.40;;;13.60;59.50;;;;;;5073830;28;20028;-75
2023/01/28 02:44:36;;;;;;;0.38;0.38;;;13.60;59.50;;;;;;5074959;28;20021;-75
2023/01/28 02:50:11;;;;;;;0.30;0.30;;;13.60;59.50;;;;;;5074621;28;20162;-75
2023/01/28 02:56:02;;;;;;;0.40;0.40;;;13.60;59.50;;;;;;4973456;28;20039;-72
2023/01/28 02:58:27;;;;;;;;;;;13.60;59.40;;;;;;4973688;28;20485;-72
2023/01/28 03:01:09;;;;;;;0.30;0.30;;;13.60;59.40;;;;;;5029714;28;19916;-72
2023/01/28 03:03:40;;;;;;;0.30;0.30;;;13.60;59.40;;;;;;5074432;28;20032;-72
2023/01/28 03:06:18;;;;;;;0.30;0.30;;;13.60;59.50;;;;;;5074194;28;20033;-72
2023/01/28 03:37:08;;;;;;;0.47;0.30;;;13.50;59.30;;;;;;5073780;28;20584;-75
2023/01/28 03:39:34;;;;;;;0.40;0.30;;;13.60;60.00;;;;;;5073673;28;20025;-75
2023/01/28 03:42:10;;;;;;;0.28;0.28;;;13.60;60.00;;;;;;5073581;28;20052;-75
2023/01/28 03:44:48;;;;;;;1.17;0.30;;;13.60;59.40;;;;;;5073626;28;20117;-75
2023/01/28 03:47:14;;;;;;;0.40;0.30;;;13.50;59.30;;;;;;5073383;28;20020;-75
2023/01/28 03:49:45;;;;;;;0.30;0.30;;;13.50;59.30;;;;;;5073496;28;20104;-75
2023/01/28 03:52:12;;;;;;;0.47;0.40;;;13.50;59.30;;;;;;5073443;28;20028;-75
2023/01/28 03:54:38;;;;;;;0.32;0.32;;;13.60;59.30;;;;;;5073180;28;20027;-75
2023/01/28 03:57:07;;;;;;;0.30;0.30;;;13.60;59.30;;;;;;5073451;28;20024;-75
2023/01/28 03:59:33;;;;;;;1.55;0.40;;;13.60;59.90;;;;;;5073139;28;20074;-75
2023/01/28 04:02:02;;;;;;;0.40;0.35;;;13.50;59.30;;;;;;5073230;28;20055;-75
2023/01/28 04:04:31;;;;;;;0.20;0.20;;;13.50;59.30;;;;;;5073376;28;20095;-75
2023/01/28 04:06:57;;;;;;;0.30;0.30;;;13.50;59.20;;;;;;5073026;28;20471;-72
2023/01/28 04:09:24;;;;;;;0.40;0.40;;;13.50;59.30;;;;;;5073298;28;20024;-75
2023/01/28 04:11:50;;;;;;;0.30;0.30;;;13.60;59.30;;;;;;5073151;28;20107;-75
2023/01/28 04:14:17;;;;;;;0.40;0.40;;;13.50;59.20;;;;;;5073156;28;20021;-75
2023/01/28 04:16:43;;;;;;;0.45;0.20;;;13.50;59.20;;;;;;5072783;28;20030;-75
2023/01/28 04:19:11;;;;;;;0.68;0.40;;;13.50;59.20;;;;;;5054853;28;20032;-75
2023/01/28 04:21:37;;;;;;;0.98;0.47;;;13.50;59.20;;;;;;5072637;28;20030;-75
2023/01/28 04:24:03;;;;;;;0.88;0.38;;;13.50;59.80;;;;;;5072802;28;20029;-75
2023/01/28 04:26:29;;;;;;;0.20;0.20;;;13.50;59.20;;;;;;5072779;28;20099;-72
2023/01/28 04:28:54;;;;;;;0.68;0.40;;;13.50;59.20;;;;;;5072619;28;20029;-71
2023/01/28 04:31:20;;;;;;;0.30;0.30;;;13.50;59.90;;;;;;5072571;28;20017;-72
2023/01/28 04:33:46;;;;;;;0.40;0.40;;;13.50;59.20;;;;;;5072491;28;20063;-72
2023/01/28 04:36:11;;;;;;;0.40;0.40;;;13.50;59.20;;;;;;5072769;28;20066;-72
2023/01/28 04:38:37;;;;;;;0.45;0.20;;;13.50;59.20;;;;;;5072483;28;20383;-72
2023/01/28 04:41:02;;;;;;;0.30;0.30;;;13.50;59.20;;;;;;5072399;28;20108;-72
2023/01/28 04:43:28;;;;;;;1.48;0.50;;;13.50;59.20;;;;;;5072340;28;20044;-72
2023/01/28 04:45:53;;;;;;;0.30;0.30;;;13.50;59.20;;;;;;5072249;28;20474;-75
2023/01/28 04:48:19;;;;;;;0.70;0.50;;;13.50;59.20;;;;;;5072279;28;20031;-75
2023/01/28 04:50:45;;;;;;;0.63;0.60;;;13.50;59.20;;;;;;5072128;28;20095;-75
2023/01/28 04:53:12;;;;;;;0.68;0.40;;;13.50;59.20;;;;;;5072206;28;20040;-75
2023/01/28 04:55:38;;;;;;;1.73;0.30;;;13.50;59.20;;;;;;5072482;28;20016;-75
2023/01/28 04:58:04;;;;;;;0.40;0.30;;;13.50;59.20;;;;;;5072599;28;20024;-75
2023/01/28 05:00:30;;;;;;;0.30;0.30;;;13.50;59.20;;;;;;5072008;28;20400;-75
2023/01/28 05:02:56;;;;;;;0.45;0.45;;;13.40;59.20;;;;;;5071836;28;20032;-75
2023/01/28 05:05:22;;;;;;;0.52;0.45;;;13.50;59.20;;;;;;5071496;28;20036;-75
2023/01/28 05:07:52;;;;;;;0.70;0.30;;;13.50;59.20;;;;;;5071744;28;20112;-75
2023/01/28 05:10:20;;;;;;;;;;;13.50;59.20;;;;;;5072349;28;20021;-75
2023/01/28 05:13:03;;;;;;;0.43;0.43;;;13.40;59.10;;;;;;5070588;28;19904;-75
2023/01/28 05:15:29;;;;;;;0.60;0.40;;;13.40;59.80;;;;;;5054141;28;20046;-75
2023/01/28 05:17:56;;;;;;;0.35;0.20;;;13.40;59.80;;;;;;5072157;28;20028;-74
2023/01/28 05:20:22;;;;;;;0.70;0.60;;;13.40;59.20;;;;;;5072193;28;20033;-73
2023/01/28 05:22:48;;;;;;;0.57;0.30;;;13.40;59.10;;;;;;5071857;28;20576;-71
2023/01/28 05:25:13;;;;;;;0.50;0.40;;;13.40;59.20;;;;;;5071904;28;20024;-72
2023/01/28 05:27:39;;;;;;;0.45;0.38;;;13.40;59.10;;;;;;5071980;28;20025;-71
2023/01/28 05:30:05;;;;;;;0.60;0.30;;;13.40;59.10;;;;;;5072133;28;20039;-71
2023/01/28 05:32:31;;;;;;;0.22;0.22;;;13.40;59.10;;;;;;5071770;28;20028;-72
2023/01/28 05:34:57;;;;;;;0.55;0.40;;;13.40;59.10;;;;;;5071760;28;20609;-72
2023/01/28 05:37:23;;;;;;;0.20;0.20;;;13.40;59.10;;;;;;5071863;28;20407;-72
2023/01/28 05:39:48;;;;;;;0.55;0.20;;;13.40;59.20;;;;;;5071893;28;20032;-72
2023/01/28 05:42:14;;;;;;;0.82;0.40;;;13.40;59.30;;;;;;5071853;28;20029;-72
2023/01/28 05:44:40;;;;;;;0.25;0.20;;;13.40;60.00;;;;;;5071674;28;20029;-72
2023/01/28 05:47:06;;;;;;;0.77;0.50;;;13.40;59.40;;;;;;5071652;28;20024;-72
2023/01/28 05:49:31;;;;;;;0.55;0.40;;;13.40;59.30;;;;;;5071716;28;20031;-72
2023/01/28 05:51:57;;;;;;;0.20;0.20;;;13.40;59.30;;;;;;5071696;28;20067;-72
2023/01/28 05:54:23;;;;;;;0.50;0.40;;;13.40;59.40;;;;;;5071632;28;20567;-72
2023/01/28 05:56:48;;;;;;;0.43;0.30;;;13.40;59.40;;;;;;5071629;28;20052;-72
2023/01/28 05:59:14;;;;;;;0.40;0.40;;;13.40;59.40;;;;;;5071578;28;20111;-75
2023/01/28 06:01:40;;;;;;;0.22;0.22;;;13.40;67.10;;;;;;5071254;28;20560;-75
2023/01/28 06:04:06;;;;;;;0.20;0.20;;;13.40;59.40;;;;;;5071971;28;20036;-75
2023/01/28 06:06:32;;;;;;;1.85;0.30;;;13.40;59.40;;;;;;5071610;28;20020;-75
2023/01/28 06:08:58;;;;;;;0.30;0.30;;;13.40;59.40;;;;;;5071365;28;20085;-75
2023/01/28 06:11:24;;;;;;;0.63;0.20;;;13.40;59.40;;;;;;5071388;28;20028;-80
2023/01/28 06:13:50;;;;;;;0.40;0.40;;;13.40;59.40;;;;;;5076528;28;20028;-76
2023/01/28 06:16:16;;;;;;;0.35;0.30;;;13.40;59.40;;;;;;5076213;28;20402;-73
2023/01/28 06:18:43;;;;;;;0.20;0.20;;;13.40;59.40;;;;;;5075423;28;20028;-73
2023/01/28 06:21:09;;;;;;;0.77;0.45;;;13.40;59.40;;;;;;5075090;28;20024;-73
2023/01/28 06:23:34;;;;;;;0.95;0.30;;;13.40;59.50;;;;;;5074962;28;20406;-73
2023/01/28 06:26:00;;;;;;;0.20;0.20;;;13.40;59.40;;;;;;5074988;28;20475;-73
2023/01/28 06:28:26;;;;;;;0.43;0.40;;;13.40;59.40;;;;;;5075083;28;20024;-73
2023/01/28 06:30:52;;;;;;;0.57;0.38;;;13.40;59.40;;;;;;5074830;28;20017;-73
2023/01/28 06:33:18;;;;;;;0.30;0.30;;;13.40;60.00;;;;;;5074839;28;20441;-72
2023/01/28 06:35:44;;;;;;;0.30;0.28;;;13.40;59.40;;;;;;5075094;28;20410;-76
2023/01/28 06:38:11;;;;;;;0.30;0.30;;;13.40;59.50;;;;;;5074755;28;20029;-76
2023/01/28 06:40:37;;;;;;;0.30;0.30;;;13.40;59.40;;;;;;5074852;28;20035;-77
2023/01/28 06:43:03;;;;;;;1.77;0.30;;;13.40;59.50;;;;;;5074622;28;20062;-77
2023/01/28 06:45:29;;;;;;;0.30;0.30;;;13.40;60.00;;;;;;5074602;28;20028;-77
2023/01/28 06:47:55;;;;;;;0.68;0.40;;;13.40;59.40;;;;;;5074604;28;20028;-77
2023/01/28 06:50:21;;;;;;;0.65;0.30;;;13.40;59.30;;;;;;5074513;28;20036;-77
2023/01/28 06:52:46;;;;;;;2.38;0.40;;;13.40;59.30;;;;;;5074552;28;20399;-72
2023/01/28 06:55:12;;;;;;;0.30;0.30;;;13.40;60.00;;;;;;5074347;28;20027;-72
2023/01/28 06:57:39;;;;;;;0.57;0.30;;;13.40;59.40;;;;;;5074450;28;20028;-72
2023/01/28 07:00:07;;;;;;;0.50;0.50;;;13.40;59.40;;;;;;5074134;28;20044;-73
2023/01/28 07:02:32;;;;;;;2.95;0.50;;;13.40;59.40;;;;;;5074118;28;20452;-73
2023/01/28 07:04:58;;;;;;;2.25;0.55;;;13.50;59.40;;;;;;5074524;28;20088;-73
2023/01/28 07:07:24;;;;;;;0.85;0.43;;;13.40;59.40;;;;;;5074188;28;20024;-72
2023/01/28 07:09:49;;;;;;;0.80;0.60;;;13.40;59.50;;;;;;5074148;28;20020;-72
2023/01/28 07:12:15;;;;;;;1.00;1.00;;;13.40;59.50;;;;;;5074115;28;20060;-77
2023/01/28 07:14:41;;;;;;;1.80;1.70;;;13.40;59.50;;;;;;5074151;28;20550;-77
2023/01/28 07:17:07;;;;;;;3.20;3.00;;;13.40;59.60;;;;;;5074096;28;20112;-77
2023/01/28 07:19:32;;;;;;;4.70;4.43;;;13.40;59.60;;;;;;5055940;28;20021;-77
2023/01/28 07:21:59;;;;;;;6.78;6.28;;;13.40;59.70;;;;;;5073757;28;20024;-77
2023/01/28 07:24:25;;;;;;;11.18;10.27;;;13.40;59.70;;;;;;5056269;28;20086;-77
2023/01/28 07:26:51;;;;;;;13.82;12.73;;;13.40;59.70;;;;;;5073631;28;20379;-77
2023/01/28 07:29:17;;;;;;;19.40;17.80;;;13.40;59.70;;;;;;5073541;28;20021;-77
2023/01/28 07:31:42;;;;;;;25.98;23.50;;;13.40;59.80;;;;;;5073839;28;20028;-72
2023/01/28 07:34:09;;;;;;;34.72;31.60;;;13.40;60.40;;;;;;5073742;28;20387;-73
2023/01/28 07:36:34;;;;;;;38.65;35.15;;;13.40;59.80;;;;;;5073607;28;20062;-72
2023/01/28 07:39:00;;;;;;;46.30;42.03;;;13.40;59.80;;;;;;5073675;28;20121;-72
2023/01/28 07:41:26;;;;;;;55.38;50.28;;;13.50;59.90;;;;;;5073516;28;20432;-72
2023/01/28 07:43:52;;;;;;;59.80;54.30;;;13.40;59.90;;;;;;5073451;28;20040;-72
2023/01/28 07:46:17;;;;;;;67.45;61.15;;;13.40;59.90;;;;;;5073437;28;20025;-72
2023/01/28 07:48:44;;;;;;;76.18;69.18;;;13.40;59.90;;;;;;5073509;28;20233;-77
2023/01/28 07:51:10;;;;;;;83.32;75.72;;;13.40;60.00;;;;;;5055460;28;20032;-77
2023/01/28 07:53:36;;;;;;;90.70;82.40;;;13.40;60.00;;;;;;5073160;28;20090;-77
2023/01/28 07:56:03;;;;;;;93.20;84.57;;;13.40;60.00;;;;;;5073180;28;20032;-77
2023/01/28 07:58:29;;;;;;;98.15;89.15;;;13.50;60.00;;;;;;5073326;28;20025;-81
2023/01/28 08:00:57;;;;;;;95.88;86.97;;;13.40;60.00;;;;;;5073140;28;20503;-77
2023/01/28 08:03:24;;;;;;;98.38;89.22;;;13.40;60.00;;;;;;5073355;28;20032;-78
2023/01/28 08:05:52;;;;;;;89.82;81.45;;;13.50;60.10;;;;;;5073285;28;20054;-80
2023/01/28 08:08:18;;;;;;;94.55;85.85;;;13.40;60.10;;;;;;5073299;28;20024;-74
2023/01/28 08:10:44;;;;;;;94.30;85.65;;;13.40;60.10;;;;;;5073135;28;20024;-74
2023/01/28 08:13:11;;;;;;;87.70;79.47;;;13.40;60.00;;;;;;5072975;28;20025;-75
2023/01/28 08:15:37;;;;;;;84.38;76.55;;;13.40;60.00;;;;;;5073281;28;20496;-74
2023/01/28 08:18:04;;;;;;;89.53;81.32;;;13.40;60.00;;;;;;5073053;28;20043;-75
2023/01/28 08:20:30;;;;;;;80.95;73.65;;;13.40;59.90;;;;;;5072942;28;20023;-74
2023/01/28 08:23:10;;;;;;;81.55;74.18;;;13.40;59.90;;;;;;5072814;28;20037;-75
2023/01/28 08:25:36;;;;;;;83.53;75.87;;;13.40;59.80;;;;;;5073083;28;20031;-74
2023/01/28 08:28:02;;;;;;;77.90;70.80;;;13.40;59.80;;;;;;5073127;28;20020;-74
2023/01/28 08:30:27;;;;;;;72.65;66.15;;;13.50;59.90;;;;;;5072764;28;20037;-75
2023/01/28 08:32:57;;;;;;;68.45;62.15;;;13.50;59.90;;;;;;5072782;28;20025;-75
2023/01/28 08:35:26;;;;;;;71.57;65.10;;;13.40;59.80;;;;;;5072709;28;20056;-74
2023/01/28 08:37:52;;;;;;;64.50;58.78;;;13.40;59.90;;;;;;5072689;28;20017;-75
2023/01/28 08:40:18;;;;;;;66.97;60.83;;;13.50;59.90;;;;;;5072082;28;20025;-74
2023/01/28 08:42:49;;;;;;;62.50;56.92;;;13.50;59.90;;;;;;5054508;28;20036;-75
2023/01/28 08:45:14;;;;;;;;;;;13.40;59.70;;;;;;5073284;28;20387;-75
2023/01/28 08:47:54;;;;;;;58.25;53.03;;;13.50;59.80;;;;;;5072758;28;19904;-74
2023/01/28 08:50:21;;;;;;;57.83;52.60;;;13.40;59.80;;;;;;5072573;28;20036;-75
2023/01/28 08:52:48;;;;;;;57.13;52.00;;;13.50;59.80;;;;;;5072365;28;20051;-77
2023/01/28 08:55:14;;;;;;;55.03;50.03;;;13.40;59.70;;;;;;5072529;28;20487;-75
2023/01/28 08:57:40;;;;;;;51.05;46.40;;;13.40;59.70;;;;;;5072340;28;20056;-75
2023/01/28 09:00:07;;;;;;;47.60;43.20;;;13.40;59.70;;;;;;5072206;28;20084;-74
2023/01/28 09:02:32;;;;;;;46.97;42.72;;;13.50;59.80;;;;;;5072179;28;20040;-75
2023/01/28 09:04:59;;;;;;;46.63;42.42;;;13.50;59.90;;;;;;5072581;28;20025;-75
2023/01/28 09:07:25;;;;;;;43.67;39.65;;;13.50;59.90;;;;;;5072649;28;20024;-75
2023/01/28 09:09:51;;;;;;;44.22;40.25;;;13.50;60.00;;;;;;5072476;28;20088;-75
2023/01/28 09:12:16;;;;;;;41.05;37.35;;;13.50;59.90;;;;;;5072365;28;20533;-76
2023/01/28 09:14:42;;;;;;;39.72;36.10;;;13.50;59.90;;;;;;5072223;28;20017;-76
2023/01/28 09:17:07;;;;;;;39.35;35.75;;;13.50;59.90;;;;;;5072124;28;20518;-76
2023/01/28 09:19:33;;;;;;;38.67;35.17;;;13.50;59.80;;;;;;5054164;28;20062;-76
2023/01/28 09:21:58;;;;;;;34.88;31.77;;;13.50;60.50;;;;;;5076954;28;20040;-79
2023/01/28 09:24:24;;;;;;;33.78;30.77;;;13.50;59.90;;;;;;5073735;28;20430;-84
2023/01/28 09:26:50;;;;;;;35.10;31.85;;;13.60;59.90;;;;;;5072277;28;20017;-79
2023/01/28 09:29:17;;;;;;;31.23;28.25;;;13.50;59.90;;;;;;5072308;28;20024;-78
2023/01/28 09:31:43;;;;;;;30.73;27.80;;;13.60;59.90;;;;;;5072396;28;20021;-79
2023/01/28 09:34:09;;;;;;;28.90;26.30;;;13.60;59.90;;;;;;5072105;28;20475;-79
2023/01/28 09:36:35;;;;;;;27.45;24.92;;;13.60;59.90;;;;;;5072362;28;20100;-78
2023/01/28 09:39:02;;;;;;;26.00;23.70;;;13.60;59.80;;;;;;5072425;28;20420;-78
2023/01/28 09:41:34;;;;;;;25.67;23.27;;;13.60;59.70;;;;;;5072304;28;20028;-75
2023/01/28 09:44:00;;;;;;;23.38;21.25;;;13.60;59.70;;;;;;5071828;28;20064;-74
2023/01/28 09:46:35;;;;;;;23.42;21.23;;;13.70;59.80;;;;;;5071799;28;20025;-75
2023/01/28 09:49:14;;;;;;;22.90;20.88;;;13.70;59.70;;;;;;5072477;28;20123;-73
2023/01/28 09:51:43;;;;;;;20.45;18.63;;;13.70;59.60;;;;;;5074394;28;20025;-74
2023/01/28 09:54:34;;;;;;;18.70;16.88;;;13.70;60.10;;;;;;5075764;28;20024;-72
2023/01/28 09:57:24;;;;;;;18.45;16.70;;;13.70;60.00;;;;;;5075702;28;20043;-75
2023/01/28 09:59:50;;;;;;;18.98;16.60;;;13.70;60.00;;;;;;5075808;28;20398;-75
2023/01/28 10:02:19;;;;;;;16.58;14.88;;;13.70;60.00;;;;;;5075394;28;20111;-75
2023/01/28 10:04:47;;;;;;;15.68;13.30;;;13.70;59.90;;;;;;5075554;28;20037;-74
2023/01/28 10:07:44;;;;;;;15.10;13.50;;;13.80;59.80;;;;;;5075438;28;20032;-76
2023/01/28 10:10:27;;;;;;;14.40;13.00;;;13.70;59.80;;;;;;5075472;28;20024;-74
2023/01/28 10:12:59;;;;;;;14.15;11.55;;;13.70;59.80;;;;;;5075685;28;20028;-73
2023/01/28 10:15:40;;;;;;;11.98;10.85;;;13.80;59.90;;;;;;5075663;28;20090;-76
2023/01/28 10:18:10;;;;;;;13.25;11.88;;;13.80;59.80;;;;;;5075150;28;20037;-75
2023/01/28 10:20:54;;;;;;;10.98;10.07;;;13.80;59.70;;;;;;5075380;28;20070;-74
2023/01/28 10:23:45;;;;;;;10.10;9.10;;;13.80;59.60;;;;;;5075298;28;20036;-74
2023/01/28 10:26:24;;;;;;;9.63;8.70;;;13.80;59.70;;;;;;5075464;28;20108;-74
2023/01/28 10:28:55;;;;;;;10.05;8.82;;;13.80;59.60;;;;;;5075145;28;20025;-75
2023/01/28 10:31:22;;;;;;;9.23;8.43;;;13.90;59.70;;;;;;5075445;28;20024;-73
2023/01/28 10:33:48;;;;;;;8.88;7.97;;;13.90;59.70;;;;;;5075031;28;20070;-73
2023/01/28 10:36:17;;;;;;;8.88;8.07;;;13.90;59.60;;;;;;5075110;28;20033;-73
2023/01/28 10:38:43;;;;;;;8.10;7.07;;;14.00;59.60;;;;;;5074938;28;20085;-74
2023/01/28 10:41:11;;;;;;;7.78;6.45;;;14.00;59.70;;;;;;5074630;28;20025;-73
2023/01/28 10:43:39;;;;;;;10.48;6.68;;;14.10;59.60;;;;;;5074456;28;20033;-73
2023/01/28 10:46:14;;;;;;;6.47;5.93;;;14.10;59.50;;;;;;5074843;28;20387;-73
2023/01/28 10:49:04;;;;;;;6.38;5.70;;;14.10;59.40;;;;;;5074437;28;20129;-72
2023/01/28 10:51:38;;;;;;;6.03;5.43;;;14.20;59.50;;;;;;5074639;28;20075;-73
2023/01/28 10:54:17;;;;;;;5.90;5.20;;;14.20;59.50;;;;;;5074586;28;20028;-76
2023/01/28 10:56:44;;;;;;;7.17;4.30;;;14.20;59.50;;;;;;5074978;28;20029;-76
2023/01/28 10:59:28;;;;;;;5.03;4.45;;;14.30;59.70;;;;;;5074832;28;20036;-75
2023/01/28 11:02:19;;;;;;;4.40;4.00;;;14.30;59.60;;;;;;5074009;28;20440;-77
2023/01/28 11:04:45;;;;;;;5.57;3.90;;;14.30;59.50;;;;;;5074846;28;20033;-75
2023/01/28 11:07:20;;;;;;;3.63;3.33;;;14.40;59.50;;;;;;5074341;28;20382;-74
2023/01/28 11:09:49;;;;;;;4.20;3.35;;;14.40;59.50;;;;;;5074420;28;20035;-74
2023/01/28 11:12:30;;;;;;;2.88;2.28;;;14.50;59.50;;;;;;5074689;28;20083;-75
2023/01/28 11:15:01;;;;;;;2.97;2.78;;;14.50;59.30;;;;;;5074725;28;20039;-75
2023/01/28 11:17:33;;;;;;;2.83;2.60;;;14.50;59.30;;;;;;5074213;28;20035;-75
2023/01/28 11:20:17;;;;;;;4.68;2.38;;;14.60;59.30;;;;;;5074230;28;20479;-75
2023/01/28 11:22:44;;;;;;;3.97;2.30;;;14.60;59.30;;;;;;5074413;28;20033;-75
2023/01/28 11:25:32;;;;;;;3.38;2.55;;;14.70;59.20;;;;;;5074100;28;20025;-75
2023/01/28 11:28:00;;;;;;;3.17;2.08;;;14.70;59.10;;;;;;5074296;28;20082;-74
2023/01/28 11:30:33;;;;;;;3.08;2.08;;;14.80;59.80;;;;;;5074079;28;20021;-74
2023/01/28 11:33:23;;;;;;;2.28;1.92;;;14.80;59.00;;;;;;5074254;28;20016;-73
2023/01/28 11:35:54;;;;;;;2.60;1.83;;;14.90;59.60;;;;;;5074271;28;20100;-73
2023/01/28 11:38:22;;;;;;;1.77;1.67;;;14.90;59.00;;;;;;5074052;28;20066;-72
2023/01/28 11:40:54;;;;;;;1.80;1.70;;;15.00;59.10;;;;;;5074417;28;20066;-73
2023/01/28 11:43:25;;;;;;;1.90;1.55;;;15.00;59.60;;;;;;5074111;28;20478;-73
2023/01/28 11:46:09;;;;;;;1.20;1.05;;;15.10;58.90;;;;;;5073722;28;20497;-72
2023/01/28 11:49:20;;;;;;;2.30;1.40;;;15.10;58.80;;;;;;5073609;28;20035;-76
2023/01/28 11:51:51;;;;;;;;;;;15.20;58.70;;;;;;4973026;28;20675;-76
2023/01/28 11:54:43;;;;;;;1.00;1.00;;;15.30;58.70;;;;;;5056979;28;19905;-75
2023/01/28 11:57:21;;;;;;;1.65;1.10;;;15.30;58.70;;;;;;5073921;28;20013;-78
2023/01/28 12:00:02;;;;;;;1.35;1.20;;;15.30;58.70;;;;;;5073525;28;20400;-77
2023/01/28 12:02:37;;;;;;;1.20;1.15;;;15.40;58.60;;;;;;5073423;28;20044;-79
2023/01/28 12:05:33;;;;;;;1.17;1.02;;;15.40;58.50;;;;;;5073177;28;20059;-76
2023/01/28 12:08:19;;;;;;;1.05;1.00;;;15.50;58.50;;;;;;5073271;28;20024;-77
2023/01/28 12:10:56;;;;;;;2.10;1.20;;;15.50;58.40;;;;;;5073438;28;20413;-77
2023/01/28 12:13:37;;;;;;;1.35;1.02;;;15.60;58.40;;;;;;5073018;28;20545;-77
2023/01/28 12:16:08;;;;;;;1.10;0.90;;;15.60;58.40;;;;;;5073394;28;20012;-78
2023/01/28 12:19:06;;;;;;;2.40;1.05;;;15.70;58.50;;;;;;5073246;28;20032;-80
2023/01/28 12:22:21;;;;;;;0.98;0.82;;;15.70;58.30;;;;;;5072882;28;20029;-78
2023/01/28 12:25:11;;;;;;;1.27;0.70;;;15.80;58.30;;;;;;4971824;28;20035;-79
2023/01/28 12:28:01;;;;;;;0.82;0.68;;;15.80;58.30;;;;;;4971948;28;20457;-79
2023/01/28 12:30:42;;;;;;;1.23;0.75;;;15.90;58.30;;;;;;5052387;28;20048;-79
2023/01/28 12:33:46;;;;;;;1.65;0.82;;;15.90;58.20;;;;;;5073056;28;20025;-79
2023/01/28 12:36:30;;;;;;;2.35;0.57;;;15.90;58.60;;;;;;5073028;28;20025;-79
2023/01/28 12:39:00;;;;;;;0.57;0.57;;;16.00;58.10;;;;;;5072685;28;20120;-79
2023/01/28 12:41:33;;;;;;;;;;;16.10;58.00;;;;;;5073652;28;20028;-79
2023/01/28 12:44:06;;;;;;;0.75;0.75;;;16.10;57.80;;;;;;5072518;28;19913;-75
2023/01/28 12:46:47;;;;;;;1.55;0.70;;;16.20;57.70;;;;;;5072832;28;20023;-75
2023/01/28 12:49:35;;;;;;;0.57;0.57;;;16.20;57.80;;;;;;5072642;28;20025;-75
2023/01/28 12:52:04;;;;;;;1.00;0.90;;;16.30;57.70;;;;;;5072769;28;20387;-75
2023/01/28 12:55:13;;;;;;;0.70;0.63;;;16.30;57.50;;;;;;5072826;28;20336;-75
2023/01/28 12:57:40;;;;;;;0.77;0.70;;;16.40;57.60;;;;;;5059646;28;20036;-75
2023/01/28 13:00:12;;;;;;;0.93;0.38;;;16.40;57.40;;;;;;5072159;28;20487;-75
2023/01/28 13:02:52;;;;;;;1.13;0.60;;;16.40;57.30;;;;;;5072458;28;20037;-75
2023/01/28 13:05:24;;;;;;;0.52;0.52;;;16.50;57.90;;;;;;5072604;28;20013;-75
2023/01/28 13:07:57;;;;;;;1.50;0.60;;;16.60;57.30;;;;;;5072542;28;20017;-75
2023/01/28 13:10:41;;;;;;;0.80;0.50;;;16.60;57.10;;;;;;5072636;28;20027;-75
2023/01/28 13:13:24;;;;;;;0.85;0.63;;;16.60;56.90;;;;;;5072487;28;20387;-75
2023/01/28 13:15:49;;;;;;;0.70;0.60;;;16.70;56.80;;;;;;5072418;28;20024;-75
2023/01/28 13:18:32;;;;;;;0.80;0.40;;;16.70;56.80;;;;;;5072180;28;20035;-75
2023/01/28 13:21:00;;;;;;;1.83;0.50;;;16.70;56.90;;;;;;5072382;28;20024;-79
2023/01/28 13:23:37;;;;;;;0.55;0.55;;;16.80;56.70;;;;;;5072315;28;20036;-80
2023/01/28 13:26:10;;;;;;;0.63;0.50;;;16.80;56.70;;;;;;5071426;28;20506;-79
2023/01/28 13:28:36;;;;;;;0.55;0.47;;;16.90;56.40;;;;;;5072130;28;20427;-79
2023/01/28 13:31:07;;;;;;;0.57;0.50;;;16.90;56.30;;;;;;5071973;28;20020;-78
2023/01/28 13:33:39;;;;;;;0.85;0.43;;;17.00;56.10;;;;;;5072338;28;20021;-78
2023/01/28 13:36:22;;;;;;;1.95;0.60;;;17.00;56.00;;;;;;5071863;28;20020;-75
2023/01/28 13:38:58;;;;;;;0.95;0.50;;;17.00;56.00;;;;;;5071991;28;20039;-73